Time,TemperatureF,DewpointF,PressureIn,WindDirection,WindDirectionDegrees,WindSpeedMPH,WindSpeedGustMPH,Humidity,HourlyPrecipIn,Conditions,Clouds,dailyrainin,SolarRadiationWatts/m^2,SoftwareType,DateUTC
2013-04-03 00:03:00,18.0,12.0,-100.00,WSW,248,5.0,11.0,76,0.00,,,0.00,0.000000,,2013-04-03 04:03:00,
2013-04-03 00:13:00,18.0,12.0,-100.00,WSW,248,5.0,11.0,76,0.00,,,0.00,0.000000,,2013-04-03 04:13:00,
2013-04-03 00:43:00,19.0,12.0,-100.00,WSW,253,5.0,8.0,75,0.00,,,0.00,0.000000,,2013-04-03 04:43:00,
2013-04-03 00:53:00,19.0,12.0,-100.00,WSW,253,5.0,8.0,75,0.00,,,0.00,0.000000,,2013-04-03 04:53:00,
2013-04-03 01:03:00,19.0,12.0,-100.00,WSW,253,5.0,8.0,75,0.00,,,0.00,0.000000,,2013-04-03 05:03:00,
2013-04-03 01:12:00,19.0,12.0,-100.00,WSW,253,5.0,8.0,75,0.00,,,0.00,0.000000,,2013-04-03 05:12:00,
2013-04-03 01:42:00,19.0,13.0,-100.00,WSW,257,5.0,8.0,77,0.00,,,0.00,0.000000,,2013-04-03 05:42:00,
2013-04-03 01:53:00,19.0,13.0,-100.00,WSW,257,5.0,8.0,77,0.00,,,0.00,0.000000,,2013-04-03 05:53:00,
2013-04-03 02:03:00,19.0,13.0,-100.00,WSW,257,5.0,8.0,77,0.00,,,0.00,0.000000,,2013-04-03 06:03:00,
2013-04-03 02:12:00,19.0,13.0,-100.00,WSW,257,5.0,8.0,77,0.00,,,0.00,0.000000,,2013-04-03 06:12:00,
2013-04-03 02:42:00,19.0,14.0,-100.00,WNW,283,5.0,12.0,79,0.00,,,0.00,0.000000,,2013-04-03 06:42:00,
2013-04-03 02:52:00,19.0,14.0,-100.00,WNW,283,5.0,12.0,79,0.00,,,0.00,0.000000,,2013-04-03 06:52:00,
2013-04-03 03:02:00,19.0,14.0,-100.00,WNW,283,5.0,12.0,79,0.00,,,0.00,0.000000,,2013-04-03 07:02:00,
2013-04-03 03:12:00,19.0,14.0,-100.00,WNW,283,5.0,12.0,79,0.00,,,0.00,0.000000,,2013-04-03 07:12:00,
2013-04-03 03:43:00,22.0,12.0,-100.00,North,356,7.0,17.0,66,0.00,,,0.00,0.000000,,2013-04-03 07:43:00,
2013-04-03 03:53:00,22.0,12.0,-100.00,North,356,7.0,17.0,66,0.00,,,0.00,0.000000,,2013-04-03 07:53:00,
2013-04-03 04:03:00,22.0,12.0,-100.00,North,356,7.0,17.0,66,0.00,,,0.00,0.000000,,2013-04-03 08:03:00,
2013-04-03 04:12:00,22.0,12.0,-100.00,North,356,7.0,17.0,66,0.00,,,0.00,0.000000,,2013-04-03 08:12:00,
2013-04-03 04:43:00,20.0,6.0,-100.00,NNW,332,3.0,12.0,53,0.00,,,0.00,0.000000,,2013-04-03 08:43:00,
2013-04-03 04:52:00,20.0,6.0,-100.00,NNW,332,3.0,12.0,53,0.00,,,0.00,0.000000,,2013-04-03 08:52:00,
2013-04-03 05:02:00,20.0,6.0,-100.00,NNW,332,3.0,12.0,53,0.00,,,0.00,0.000000,,2013-04-03 09:02:00,
2013-04-03 05:12:00,20.0,6.0,-100.00,NNW,332,3.0,12.0,53,0.00,,,0.00,0.000000,,2013-04-03 09:12:00,
2013-04-03 05:43:00,15.0,4.0,-100.00,NNW,345,3.0,6.0,61,0.00,,,0.00,0.000000,,2013-04-03 09:43:00,
2013-04-03 05:53:00,15.0,4.0,-100.00,NNW,345,3.0,6.0,61,0.00,,,0.00,0.000000,,2013-04-03 09:53:00,
2013-04-03 06:03:00,15.0,4.0,-100.00,NNW,345,3.0,6.0,61,0.00,,,0.00,0.000000,,2013-04-03 10:03:00,
2013-04-03 06:12:00,15.0,4.0,-100.00,NNW,345,3.0,6.0,61,0.00,,,0.00,0.000000,,2013-04-03 10:12:00,
2013-04-03 06:43:00,17.0,7.0,-100.00,NW,308,3.0,5.0,65,0.00,,,0.00,0.000000,,2013-04-03 10:43:00,
2013-04-03 06:53:00,17.0,7.0,-100.00,NW,308,3.0,5.0,65,0.00,,,0.00,0.000000,,2013-04-03 10:53:00,
2013-04-03 07:02:00,17.0,7.0,-100.00,NW,308,3.0,5.0,65,0.00,,,0.00,0.000000,,2013-04-03 11:02:00,
2013-04-03 07:12:00,17.0,7.0,-100.00,NW,308,3.0,5.0,65,0.00,,,0.00,0.000000,,2013-04-03 11:12:00,
2013-04-03 07:42:00,20.0,8.0,-100.00,NNW,338,4.0,10.0,60,0.00,,,0.00,0.000000,,2013-04-03 11:42:00,
2013-04-03 07:53:00,20.0,8.0,-100.00,NNW,338,4.0,10.0,60,0.00,,,0.00,0.000000,,2013-04-03 11:53:00,
2013-04-03 08:02:00,20.0,8.0,-100.00,NNW,338,4.0,10.0,60,0.00,,,0.00,0.000000,,2013-04-03 12:02:00,
2013-04-03 08:13:00,20.0,8.0,-100.00,NNW,338,4.0,10.0,60,0.00,,,0.00,0.000000,,2013-04-03 12:13:00,
2013-04-03 08:42:00,22.0,8.0,-100.00,West,260,2.0,7.0,54,0.00,,,0.00,76.000000,,2013-04-03 12:42:00,
2013-04-03 08:52:00,22.0,8.0,-100.00,West,260,2.0,7.0,54,0.00,,,0.00,76.000000,,2013-04-03 12:52:00,
2013-04-03 09:02:00,22.0,8.0,-100.00,West,260,2.0,7.0,54,0.00,,,0.00,76.000000,,2013-04-03 13:02:00,
2013-04-03 09:12:00,22.0,8.0,-100.00,West,260,2.0,7.0,54,0.00,,,0.00,76.000000,,2013-04-03 13:12:00,
2013-04-03 09:42:00,24.0,9.0,-100.00,SSW,203,3.0,5.0,53,0.00,,,0.00,282.000000,,2013-04-03 13:42:00,
2013-04-03 09:52:00,24.0,9.0,-100.00,SSW,203,3.0,5.0,53,0.00,,,0.00,282.000000,,2013-04-03 13:52:00,
2013-04-03 10:02:00,24.0,9.0,-100.00,SSW,203,3.0,5.0,53,0.00,,,0.00,282.000000,,2013-04-03 14:02:00,
2013-04-03 10:13:00,24.0,9.0,-100.00,SSW,203,3.0,5.0,53,0.00,,,0.00,282.000000,,2013-04-03 14:13:00,
2013-04-03 10:43:00,28.0,10.0,-100.00,NW,325,11.0,19.0,46,0.00,,,0.00,506.000000,,2013-04-03 14:43:00,
2013-04-03 10:52:00,28.0,10.0,-100.00,NW,325,11.0,19.0,46,0.00,,,0.00,506.000000,,2013-04-03 14:52:00,
2013-04-03 11:02:00,28.0,10.0,-100.00,NW,325,11.0,19.0,46,0.00,,,0.00,506.000000,,2013-04-03 15:02:00,
2013-04-03 11:13:00,28.0,10.0,-100.00,NW,325,11.0,19.0,46,0.00,,,0.00,506.000000,,2013-04-03 15:13:00,
2013-04-03 11:43:00,29.0,10.0,-100.00,NW,314,12.0,19.0,44,0.00,,,0.00,707.000000,,2013-04-03 15:43:00,
2013-04-03 11:53:00,29.0,10.0,-100.00,NW,314,12.0,19.0,44,0.00,,,0.00,707.000000,,2013-04-03 15:53:00,
2013-04-03 12:04:00,29.0,10.0,-100.00,NW,314,12.0,19.0,44,0.00,,,0.00,707.000000,,2013-04-03 16:04:00,
2013-04-03 12:13:00,29.0,10.0,-100.00,NW,314,12.0,19.0,44,0.00,,,0.00,707.000000,,2013-04-03 16:13:00,
2013-04-03 12:14:00,31.0,12.0,-100.00,NW,312,11.0,18.0,44,0.00,,,0.00,879.000000,,2013-04-03 16:14:00,
2013-04-03 12:44:00,31.0,12.0,-100.00,NW,312,11.0,18.0,44,0.00,,,0.00,879.000000,,2013-04-03 16:44:00,
2013-04-03 12:53:00,31.0,12.0,-100.00,NW,312,11.0,18.0,44,0.00,,,0.00,879.000000,,2013-04-03 16:53:00,
2013-04-03 13:03:00,31.0,12.0,-100.00,NW,312,11.0,18.0,44,0.00,,,0.00,879.000000,,2013-04-03 17:03:00,
2013-04-03 13:47:00,34.0,11.0,-100.00,NW,323,7.0,17.0,38,0.00,,,0.00,990.000000,,2013-04-03 17:47:00,
2013-04-03 13:54:00,34.0,11.0,-100.00,NW,323,7.0,17.0,38,0.00,,,0.00,990.000000,,2013-04-03 17:54:00,
2013-04-03 14:03:00,34.0,11.0,-100.00,NW,323,7.0,17.0,38,0.00,,,0.00,990.000000,,2013-04-03 18:03:00,
2013-04-03 14:13:00,34.0,11.0,-100.00,NW,323,7.0,17.0,38,0.00,,,0.00,990.000000,,2013-04-03 18:13:00,
2013-04-03 14:43:00,36.0,9.0,-100.00,NW,311,7.0,14.0,32,0.00,,,0.00,1031.000000,,2013-04-03 18:43:00,
2013-04-03 14:52:00,36.0,9.0,-100.00,NW,311,7.0,14.0,32,0.00,,,0.00,1031.000000,,2013-04-03 18:52:00,
2013-04-03 15:03:00,36.0,9.0,-100.00,NW,311,7.0,14.0,32,0.00,,,0.00,1031.000000,,2013-04-03 19:03:00,
2013-04-03 15:12:00,36.0,9.0,-100.00,NW,311,7.0,14.0,32,0.00,,,0.00,1031.000000,,2013-04-03 19:12:00,
2013-04-03 15:42:00,39.0,8.0,-100.00,NNW,334,6.0,12.0,27,0.00,,,0.00,1000.000000,,2013-04-03 19:42:00,
2013-04-03 15:52:00,39.0,8.0,-100.00,NNW,334,6.0,12.0,27,0.00,,,0.00,1000.000000,,2013-04-03 19:52:00,
2013-04-03 16:02:00,39.0,8.0,-100.00,NNW,334,6.0,12.0,27,0.00,,,0.00,1000.000000,,2013-04-03 20:02:00,
2013-04-03 16:13:00,39.0,8.0,-100.00,NNW,334,6.0,12.0,27,0.00,,,0.00,1000.000000,,2013-04-03 20:13:00,
2013-04-03 16:42:00,38.0,9.0,-100.00,North,359,7.0,11.0,30,0.00,,,0.00,894.000000,,2013-04-03 20:42:00,
2013-04-03 16:54:00,38.0,9.0,-100.00,North,359,7.0,11.0,30,0.00,,,0.00,894.000000,,2013-04-03 20:54:00,
2013-04-03 17:03:00,38.0,9.0,-100.00,North,359,7.0,11.0,30,0.00,,,0.00,894.000000,,2013-04-03 21:03:00,
2013-04-03 17:12:00,38.0,9.0,-100.00,North,359,7.0,11.0,30,0.00,,,0.00,894.000000,,2013-04-03 21:12:00,
2013-04-03 17:33:00,34.0,13.0,-100.00,NNE,33,9.0,13.0,42,0.00,,,0.00,729.000000,,2013-04-03 21:33:00,
2013-04-03 17:42:00,34.0,13.0,-100.00,NNE,33,9.0,13.0,42,0.00,,,0.00,729.000000,,2013-04-03 21:42:00,
2013-04-03 17:52:00,34.0,13.0,-100.00,NNE,33,9.0,13.0,42,0.00,,,0.00,729.000000,,2013-04-03 21:52:00,
2013-04-03 18:02:00,34.0,13.0,-100.00,NNE,33,9.0,13.0,42,0.00,,,0.00,729.000000,,2013-04-03 22:02:00,
2013-04-03 18:13:00,34.0,13.0,-100.00,NNE,33,9.0,13.0,42,0.00,,,0.00,729.000000,,2013-04-03 22:13:00,
2013-04-03 18:42:00,36.0,12.0,-100.00,NNE,22,5.0,13.0,37,0.00,,,0.00,514.000000,,2013-04-03 22:42:00,
2013-04-03 18:53:00,36.0,12.0,-100.00,NNE,22,5.0,13.0,37,0.00,,,0.00,514.000000,,2013-04-03 22:53:00,
2013-04-03 19:02:00,36.0,12.0,-100.00,NNE,22,5.0,13.0,37,0.00,,,0.00,514.000000,,2013-04-03 23:02:00,
2013-04-03 19:12:00,36.0,12.0,-100.00,NNE,22,5.0,13.0,37,0.00,,,0.00,514.000000,,2013-04-03 23:12:00,
2013-04-03 19:33:00,33.0,17.0,-100.00,SW,223,8.0,12.0,51,0.00,,,0.00,282.000000,,2013-04-03 23:33:00,
2013-04-03 19:43:00,33.0,17.0,-100.00,SW,223,8.0,12.0,51,0.00,,,0.00,282.000000,,2013-04-03 23:43:00,
2013-04-03 19:55:00,33.0,17.0,-100.00,SW,223,8.0,12.0,51,0.00,,,0.00,282.000000,,2013-04-03 23:55:00,
2013-04-03 20:03:00,33.0,17.0,-100.00,SW,223,8.0,12.0,51,0.00,,,0.00,282.000000,,2013-04-04 00:03:00,
2013-04-03 20:12:00,33.0,17.0,-100.00,SW,223,8.0,12.0,51,0.00,,,0.00,282.000000,,2013-04-04 00:12:00,
2013-04-03 20:43:00,28.0,16.0,-100.00,SW,215,6.0,11.0,59,0.00,,,0.00,66.000000,,2013-04-04 00:43:00,
2013-04-03 20:53:00,28.0,16.0,-100.00,SW,215,6.0,11.0,59,0.00,,,0.00,66.000000,,2013-04-04 00:53:00,
2013-04-03 21:02:00,28.0,16.0,-100.00,SW,215,6.0,11.0,59,0.00,,,0.00,66.000000,,2013-04-04 01:02:00,
2013-04-03 21:12:00,28.0,16.0,-100.00,SW,215,6.0,11.0,59,0.00,,,0.00,66.000000,,2013-04-04 01:12:00,
2013-04-03 21:32:00,26.0,16.0,-100.00,SSW,206,9.0,11.0,66,0.00,,,0.00,0.000000,,2013-04-04 01:32:00,
2013-04-03 21:43:00,26.0,16.0,-100.00,SSW,206,9.0,11.0,66,0.00,,,0.00,0.000000,,2013-04-04 01:43:00,
2013-04-03 21:53:00,26.0,16.0,-100.00,SSW,206,9.0,11.0,66,0.00,,,0.00,0.000000,,2013-04-04 01:53:00,
2013-04-03 22:02:00,26.0,16.0,-100.00,SSW,206,9.0,11.0,66,0.00,,,0.00,0.000000,,2013-04-04 02:02:00,
2013-04-03 22:12:00,26.0,16.0,-100.00,SSW,206,9.0,11.0,66,0.00,,,0.00,0.000000,,2013-04-04 02:12:00,
2013-04-03 23:02:00,26.0,17.0,-100.00,SSW,209,10.0,14.0,68,0.00,,,0.00,0.000000,,2013-04-04 03:02:00,
2013-04-03 23:12:00,26.0,17.0,-100.00,SSW,209,10.0,14.0,68,0.00,,,0.00,0.000000,,2013-04-04 03:12:00,
2013-04-03 23:34:00,25.0,17.0,-100.00,SSW,194,9.0,15.0,70,0.00,,,0.00,0.000000,,2013-04-04 03:34:00,
2013-04-03 23:45:00,25.0,17.0,-100.00,SSW,194,9.0,15.0,70,0.00,,,0.00,0.000000,,2013-04-04 03:45:00,
2013-04-03 23:53:00,25.0,17.0,-100.00,SSW,194,9.0,15.0,70,0.00,,,0.00,0.000000,,2013-04-04 03:53:00,